Time;durP1;ratioP1;P1;durP2;ratioP2;P2;SDS_P1;SDS_P2;PMS_P1;PMS_P2;Temp;Humidity;BMP_temperature;BMP_pressure;BME280_temperature;BME280_humidity;BME280_pressure;Samples;Min_cycle;Max_cycle;Signal;HPM_P1;HPM_P2
2020/12/04 00:01:15;;;;;;;69.22;30.67;;;1.80;99.90;;;;;;4992827;28;20034;-76
2020/12/04 00:03:40;;;;;;;59.83;29.20;;;1.80;99.90;;;;;;4993002;28;20022;-75
2020/12/04 00:06:06;;;;;;;62.65;29.75;;;1.80;99.90;;;;;;5004024;28;20116;-76
2020/12/04 00:08:31;;;;;;;61.35;28.52;;;1.80;99.90;;;;;;5010397;28;20036;-75
2020/12/04 00:10:57;;;;;;;61.33;29.30;;;1.90;99.90;;;;;;5027241;28;20076;-75
2020/12/04 00:13:22;;;;;;;59.78;29.80;;;1.80;99.90;;;;;;5013570;28;20037;-74
2020/12/04 00:15:48;;;;;;;70.82;30.63;;;1.80;99.90;;;;;;5012339;28;20036;-75
2020/12/04 00:18:13;;;;;;;67.20;28.30;;;1.80;99.90;;;;;;5028562;28;20033;-75
2020/12/04 00:20:38;;;;;;;66.68;29.70;;;1.70;99.90;;;;;;5013184;28;20072;-75
2020/12/04 00:23:04;;;;;;;67.97;30.45;;;1.70;99.90;;;;;;5013402;28;20554;-75
2020/12/04 00:25:29;;;;;;;62.03;28.60;;;1.70;99.90;;;;;;5003574;28;20030;-75
2020/12/04 00:27:55;;;;;;;62.35;28.73;;;1.80;99.90;;;;;;4993682;28;20391;-74
2020/12/04 00:30:20;;;;;;;63.33;26.67;;;1.80;99.90;;;;;;4993581;28;20040;-74
2020/12/04 00:32:46;;;;;;;59.88;28.38;;;1.80;99.90;;;;;;4993488;28;20069;-74
2020/12/04 00:35:11;;;;;;;66.20;30.70;;;1.80;99.90;;;;;;4994277;28;20125;-75
2020/12/04 00:37:37;;;;;;;60.40;28.00;;;1.80;99.90;;;;;;4993516;28;20022;-74
2020/12/04 00:40:03;;;;;;;60.70;27.67;;;1.80;99.90;;;;;;4992133;28;20033;-75
2020/12/04 00:42:29;;;;;;;58.22;28.20;;;1.80;99.90;;;;;;4992967;28;20026;-74
2020/12/04 00:44:54;;;;;;;62.13;26.92;;;1.80;99.90;;;;;;4999117;28;20397;-75
2020/12/04 00:47:20;;;;;;;64.18;28.90;;;1.70;99.90;;;;;;5012938;28;20030;-74
2020/12/04 00:49:45;;;;;;;65.20;28.30;;;1.70;99.90;;;;;;5012816;28;20474;-75
2020/12/04 00:52:10;;;;;;;65.32;27.58;;;1.70;99.90;;;;;;5011453;28;20030;-75
2020/12/04 00:54:36;;;;;;;69.53;29.02;;;1.70;99.90;;;;;;5025367;28;20383;-75
2020/12/04 00:57:01;;;;;;;61.22;27.17;;;1.70;99.90;;;;;;4993182;28;20019;-75
2020/12/04 00:59:27;;;;;;;67.25;27.45;;;1.70;99.90;;;;;;4993092;28;20090;-75
2020/12/04 01:01:52;;;;;;;61.08;27.17;;;1.70;99.90;;;;;;4993007;28;20098;-75
2020/12/04 01:04:18;;;;;;;60.15;27.17;;;1.70;99.90;;;;;;4992800;28;20483;-75
2020/12/04 01:06:43;;;;;;;61.35;26.45;;;1.70;99.90;;;;;;5009180;28;20087;-75
2020/12/04 01:09:09;;;;;;;62.63;27.25;;;1.60;99.90;;;;;;5012531;28;20030;-75
2020/12/04 01:11:34;;;;;;;64.10;29.50;;;1.70;99.90;;;;;;5012466;28;20030;-75
2020/12/04 01:14:00;;;;;;;60.95;26.40;;;1.60;99.90;;;;;;5012048;28;20061;-75
2020/12/04 01:16:26;;;;;;;63.60;26.80;;;1.50;99.90;;;;;;4992599;28;20487;-74
2020/12/04 01:18:51;;;;;;;58.38;26.58;;;1.50;99.90;;;;;;4991545;28;20073;-74
2020/12/04 01:21:17;;;;;;;56.97;25.88;;;1.60;99.90;;;;;;4992657;28;20463;-74
2020/12/04 01:23:43;;;;;;;57.10;26.50;;;1.50;99.90;;;;;;4992624;28;20034;-75
2020/12/04 01:26:08;;;;;;;58.75;27.38;;;1.50;99.90;;;;;;5006715;28;20029;-75
2020/12/04 01:28:34;;;;;;;55.83;25.88;;;1.50;99.90;;;;;;5012322;28;20394;-75
2020/12/04 01:31:00;;;;;;;52.85;24.75;;;1.50;99.90;;;;;;5010740;28;20038;-75
2020/12/04 01:33:25;;;;;;;57.38;25.95;;;1.60;99.90;;;;;;4991418;28;20034;-75
2020/12/04 01:35:51;;;;;;;50.17;23.52;;;1.60;99.90;;;;;;5001404;28;20083;-74
2020/12/04 01:38:16;;;;;;;52.45;24.95;;;1.60;99.90;;;;;;5012270;28;20030;-75
2020/12/04 01:40:42;;;;;;;51.00;23.67;;;1.70;99.90;;;;;;5012055;28;20056;-75
2020/12/04 01:43:07;;;;;;;53.25;25.15;;;1.70;99.90;;;;;;5027309;28;20026;-75
2020/12/04 01:45:36;;;;;;;48.35;23.27;;;1.70;99.90;;;;;;4999149;28;20034;-75
2020/12/04 01:48:03;;;;;;;50.85;23.67;;;1.80;99.90;;;;;;4992462;28;20026;-75
2020/12/04 01:50:29;;;;;;;56.72;24.35;;;1.70;99.90;;;;;;4992324;28;20054;-74
2020/12/04 01:52:55;;;;;;;51.20;23.73;;;1.80;99.90;;;;;;4992784;28;20046;-75
2020/12/04 01:55:20;;;;;;;59.33;24.90;;;1.80;99.90;;;;;;5002304;28;20034;-75
2020/12/04 01:57:46;;;;;;;53.70;24.55;;;1.80;99.90;;;;;;5016027;28;20021;-74
2020/12/04 02:00:12;;;;;;;47.75;21.55;;;1.80;99.90;;;;;;5015672;28;20469;-74
2020/12/04 02:02:38;;;;;;;47.30;22.02;;;1.80;99.90;;;;;;5014691;28;20026;-75
2020/12/04 02:05:04;;;;;;;43.67;21.52;;;1.80;99.90;;;;;;5015313;28;20072;-75
2020/12/04 02:07:51;;;;;;;47.83;22.60;;;1.90;99.90;;;;;;5015934;28;20030;-75
2020/12/04 02:10:32;;;;;;;49.53;23.58;;;1.80;99.90;;;;;;5016152;28;20033;-75
2020/12/04 02:13:00;;;;;;;47.42;22.30;;;1.90;99.90;;;;;;5015874;28;20084;-75
2020/12/04 02:15:25;;;;;;;46.58;22.25;;;2.00;99.90;;;;;;5003640;28;20026;-75
2020/12/04 02:17:57;;;;;;;42.55;21.60;;;2.00;99.90;;;;;;4996092;28;20030;-74
2020/12/04 02:20:23;;;;;;;43.88;21.48;;;2.10;99.90;;;;;;4996027;28;20553;-74
2020/12/04 02:22:49;;;;;;;43.15;21.88;;;2.00;99.90;;;;;;4996022;28;20039;-75
2020/12/04 02:25:14;;;;;;;41.92;21.23;;;2.00;99.90;;;;;;5002723;28;20569;-74
2020/12/04 02:27:47;;;;;;;44.15;21.98;;;2.00;99.90;;;;;;5014181;28;20022;-74
2020/12/04 02:30:31;;;;;;;47.25;22.23;;;2.10;99.90;;;;;;5015096;28;20088;-75
2020/12/04 02:32:57;;;;;;;53.08;22.77;;;2.00;99.90;;;;;;5014111;28;20502;-75
2020/12/04 02:35:23;;;;;;;46.22;20.90;;;2.00;99.90;;;;;;5009421;28;20026;-74
2020/12/04 02:37:48;;;;;;;48.85;22.52;;;1.80;99.90;;;;;;4995755;28;20029;-74
2020/12/04 02:40:14;;;;;;;47.10;22.55;;;1.90;99.90;;;;;;4995606;28;20026;-75
2020/12/04 02:42:43;;;;;;;43.35;21.95;;;1.90;99.90;;;;;;4995591;28;20084;-75
2020/12/04 02:45:08;;;;;;;44.70;19.92;;;1.90;99.90;;;;;;5004187;28;20112;-75
2020/12/04 02:47:34;;;;;;;44.05;21.90;;;1.90;99.90;;;;;;5015032;28;20108;-75
2020/12/04 02:49:59;;;;;;;46.95;20.92;;;1.80;99.90;;;;;;5015114;28;20033;-74
2020/12/04 02:52:25;;;;;;;46.25;20.50;;;1.80;99.90;;;;;;5013719;28;20121;-75
2020/12/04 02:54:51;;;;;;;46.75;20.70;;;1.80;99.90;;;;;;5010426;28;20037;-75
2020/12/04 02:57:16;;;;;;;40.22;20.80;;;1.80;99.90;;;;;;4995463;28;20074;-75
2020/12/04 02:59:42;;;;;;;41.13;20.23;;;1.80;99.90;;;;;;5000692;28;20100;-75
2020/12/04 03:02:08;;;;;;;46.00;21.50;;;1.80;99.90;;;;;;5014863;28;20030;-75
2020/12/04 03:04:34;;;;;;;44.90;21.45;;;1.80;99.90;;;;;;5026293;28;20022;-75
2020/12/04 03:06:59;;;;;;;45.65;21.58;;;1.80;99.90;;;;;;4993708;28;20031;-75
2020/12/04 03:09:25;;;;;;;44.97;22.15;;;1.80;99.90;;;;;;5010164;28;20026;-75
2020/12/04 03:11:53;;;;;;;41.65;20.88;;;1.80;99.90;;;;;;4995088;28;20032;-75
2020/12/04 03:14:19;;;;;;;51.58;22.30;;;1.80;99.90;;;;;;4995736;28;20037;-75
2020/12/04 03:16:44;;;;;;;45.08;22.70;;;1.90;99.90;;;;;;5014589;28;20018;-74
2020/12/04 03:19:10;;;;;;;46.05;21.65;;;1.90;99.90;;;;;;5014559;28;20030;-75
2020/12/04 03:21:35;;;;;;;42.53;21.60;;;1.90;99.90;;;;;;5014496;28;20018;-74
2020/12/04 03:24:00;;;;;;;37.38;19.85;;;1.90;99.90;;;;;;5014207;28;20029;-74
2020/12/04 03:26:26;;;;;;;38.78;20.08;;;1.80;99.90;;;;;;4997561;28;20038;-74
2020/12/04 03:28:51;;;;;;;45.97;20.58;;;1.80;99.90;;;;;;4994839;28;20069;-75
2020/12/04 03:31:17;;;;;;;42.00;19.73;;;1.80;99.90;;;;;;4994480;28;20038;-75
2020/12/04 03:33:42;;;;;;;40.00;20.33;;;1.80;99.90;;;;;;4994547;28;20386;-75
2020/12/04 03:36:08;;;;;;;38.25;18.00;;;1.80;99.90;;;;;;5005847;28;20033;-75
2020/12/04 03:38:33;;;;;;;38.20;19.35;;;1.90;99.90;;;;;;5014188;28;20672;-75
2020/12/04 03:40:59;;;;;;;48.35;18.45;;;1.80;99.90;;;;;;5014048;28;20038;-75
2020/12/04 03:43:24;;;;;;;38.83;18.08;;;1.80;99.90;;;;;;5013041;28;20105;-75
2020/12/04 03:45:49;;;;;;;37.83;19.05;;;1.80;99.90;;;;;;4998198;28;20521;-75
2020/12/04 03:48:15;;;;;;;36.47;17.55;;;1.80;99.90;;;;;;4994503;28;20037;-75
2020/12/04 03:50:40;;;;;;;37.65;18.48;;;1.80;99.90;;;;;;4993179;28;20027;-74
2020/12/04 03:53:06;;;;;;;37.20;18.90;;;1.80;99.90;;;;;;4994290;28;20058;-75
2020/12/04 03:55:32;;;;;;;40.97;19.27;;;1.80;99.90;;;;;;5002022;28;20445;-75
2020/12/04 03:57:57;;;;;;;43.75;20.63;;;1.80;99.90;;;;;;5013508;28;20029;-75
2020/12/04 04:00:23;;;;;;;38.72;18.83;;;1.70;99.90;;;;;;5012180;28;20033;-75
2020/12/04 04:02:49;;;;;;;39.47;18.92;;;1.80;99.90;;;;;;5012512;28;20033;-75
2020/12/04 04:05:15;;;;;;;42.75;20.67;;;1.70;99.90;;;;;;5009148;28;20679;-74
2020/12/04 04:07:40;;;;;;;38.30;18.88;;;1.70;99.90;;;;;;4994065;28;20490;-75
2020/12/04 04:10:06;;;;;;;38.03;19.70;;;1.70;99.90;;;;;;4994020;28;20034;-74
2020/12/04 04:12:31;;;;;;;43.35;22.00;;;1.60;99.90;;;;;;4992712;28;20033;-75
2020/12/04 04:14:58;;;;;;;40.05;18.15;;;1.60;99.90;;;;;;5000613;28;20091;-75
2020/12/04 04:17:23;;;;;;;41.88;21.20;;;1.60;99.90;;;;;;5012871;28;20160;-75
2020/12/04 04:19:49;;;;;;;40.95;21.30;;;1.50;99.90;;;;;;5013415;28;20061;-75
2020/12/04 04:22:14;;;;;;;41.67;19.95;;;1.50;99.90;;;;;;5013351;28;20399;-75
2020/12/04 04:24:39;;;;;;;42.33;21.88;;;1.50;99.90;;;;;;5011136;28;20037;-75
2020/12/04 04:27:05;;;;;;;36.90;19.58;;;1.50;99.90;;;;;;4993791;28;20026;-74
2020/12/04 04:29:30;;;;;;;42.30;19.25;;;1.50;99.90;;;;;;4992331;28;20100;-75
2020/12/04 04:31:56;;;;;;;46.45;21.77;;;1.50;99.90;;;;;;5008421;28;20038;-75
2020/12/04 04:34:21;;;;;;;40.75;20.40;;;1.50;99.90;;;;;;4993359;28;20505;-75
2020/12/04 04:36:47;;;;;;;41.17;21.17;;;1.60;99.90;;;;;;5009922;28;20030;-74
2020/12/04 04:39:13;;;;;;;46.40;22.77;;;1.50;99.90;;;;;;5011746;28;20021;-75
2020/12/04 04:41:38;;;;;;;48.17;22.42;;;1.50;99.90;;;;;;5028191;28;20040;-75
2020/12/04 04:44:04;;;;;;;45.58;22.75;;;1.50;99.90;;;;;;5012334;28;20029;-74
2020/12/04 04:46:38;;;;;;;43.33;20.27;;;1.50;99.90;;;;;;4993343;28;20109;-76
2020/12/04 04:49:12;;;;;;;46.72;23.17;;;1.50;99.90;;;;;;4993374;28;20026;-74
2020/12/04 04:51:40;;;;;;;41.83;20.92;;;1.60;99.90;;;;;;4993173;28;20084;-75
2020/12/04 04:54:08;;;;;;;42.55;22.52;;;1.50;99.90;;;;;;4993036;28;20018;-75
2020/12/04 04:56:33;;;;;;;52.38;21.65;;;1.50;99.90;;;;;;5009170;28;20084;-75
2020/12/04 04:58:59;;;;;;;49.60;20.67;;;1.50;99.90;;;;;;5011526;28;20022;-75
2020/12/04 05:01:24;;;;;;;45.88;21.30;;;1.50;99.90;;;;;;5011376;28;20091;-74
2020/12/04 05:04:00;;;;;;;48.33;21.92;;;1.50;99.90;;;;;;5010837;28;20025;-74
2020/12/04 05:06:35;;;;;;;45.67;22.63;;;1.50;99.90;;;;;;4998736;28;20037;-75
2020/12/04 05:09:04;;;;;;;46.35;21.38;;;1.40;99.90;;;;;;4993027;28;20103;-74
2020/12/04 05:11:31;;;;;;;50.85;23.95;;;1.40;99.90;;;;;;4992932;28;20041;-75
2020/12/04 05:14:14;;;;;;;45.90;22.48;;;1.30;99.90;;;;;;4992748;28;20054;-75
2020/12/04 05:16:41;;;;;;;47.70;21.80;;;1.40;99.90;;;;;;4992761;28;20029;-74
2020/12/04 05:19:07;;;;;;;45.10;21.77;;;1.40;99.90;;;;;;4992830;28;20022;-74
2020/12/04 05:21:33;;;;;;;46.78;21.67;;;1.40;99.90;;;;;;4991567;28;20026;-75
2020/12/04 05:23:59;;;;;;;51.00;24.05;;;1.40;99.90;;;;;;4991370;28;20044;-74
2020/12/04 05:26:29;;;;;;;54.78;24.70;;;1.40;99.90;;;;;;5009304;28;20108;-75
2020/12/04 05:28:55;;;;;;;43.22;22.80;;;1.40;99.90;;;;;;5012373;28;20026;-74
2020/12/04 05:31:28;;;;;;;49.03;22.80;;;1.30;99.90;;;;;;5007439;28;20125;-75
2020/12/04 05:33:54;;;;;;;43.70;23.27;;;1.40;99.90;;;;;;5007704;28;20037;-75
2020/12/04 05:36:28;;;;;;;50.55;24.25;;;1.30;99.90;;;;;;5005016;28;20120;-74
2020/12/04 05:38:56;;;;;;;52.67;23.02;;;1.30;99.90;;;;;;5011039;28;20018;-74
2020/12/04 05:41:22;;;;;;;53.60;25.30;;;1.30;99.90;;;;;;5012067;28;20025;-75
2020/12/04 05:43:48;;;;;;;57.45;26.50;;;1.20;99.90;;;;;;5011837;28;20030;-75
2020/12/04 05:46:25;;;;;;;52.03;23.50;;;1.20;99.90;;;;;;4994150;28;20154;-75
2020/12/04 05:49:09;;;;;;;52.17;23.70;;;1.20;99.90;;;;;;4992563;28;20046;-74
2020/12/04 05:51:35;;;;;;;;;;;1.20;99.90;;;;;;4992881;28;20027;-74
2020/12/04 05:54:01;;;;;;;50.78;22.55;;;1.20;99.90;;;;;;4992200;28;19944;-74
2020/12/04 05:56:27;;;;;;;50.85;22.55;;;1.30;99.90;;;;;;5008272;28;20040;-75
2020/12/04 05:58:56;;;;;;;54.15;24.00;;;1.20;99.90;;;;;;5011967;28;20481;-75
2020/12/04 06:01:23;;;;;;;49.97;23.00;;;1.30;99.90;;;;;;5011609;28;20034;-75
2020/12/04 06:03:56;;;;;;;49.90;24.45;;;1.30;99.90;;;;;;5011328;28;20026;-75
2020/12/04 06:06:29;;;;;;;52.80;24.33;;;1.30;99.90;;;;;;4998786;28;20037;-75
2020/12/04 06:08:59;;;;;;;54.30;22.67;;;1.30;99.90;;;;;;4992367;28;20525;-75
2020/12/04 06:11:30;;;;;;;57.25;24.77;;;1.20;99.90;;;;;;4992155;28;20518;-75
2020/12/04 06:13:58;;;;;;;44.10;22.88;;;1.30;99.90;;;;;;4992141;28;20028;-74
2020/12/04 06:16:23;;;;;;;47.45;22.77;;;1.30;99.90;;;;;;5010796;28;20030;-75
2020/12/04 06:18:49;;;;;;;52.40;23.00;;;1.20;99.90;;;;;;5011698;28;20030;-74
2020/12/04 06:21:14;;;;;;;47.03;22.35;;;1.20;99.90;;;;;;5011740;28;20029;-74
2020/12/04 06:24:06;;;;;;;45.63;21.15;;;1.20;99.90;;;;;;5010478;28;20525;-75
2020/12/04 06:26:51;;;;;;;46.20;23.63;;;1.30;99.90;;;;;;5009365;28;20034;-74
2020/12/04 06:29:17;;;;;;;52.63;24.17;;;1.20;99.90;;;;;;4992003;28;20053;-74
2020/12/04 06:31:42;;;;;;;49.38;23.38;;;1.20;99.90;;;;;;4991955;28;20408;-75
2020/12/04 06:34:16;;;;;;;52.80;24.52;;;1.20;99.90;;;;;;4990698;28;20406;-75
2020/12/04 06:36:42;;;;;;;50.05;23.90;;;1.20;99.90;;;;;;5005343;28;20037;-75
2020/12/04 06:39:08;;;;;;;54.10;25.30;;;1.20;99.90;;;;;;5011646;28;20014;-75
2020/12/04 06:41:45;;;;;;;42.72;21.98;;;1.20;99.90;;;;;;5013973;28;20025;-74
2020/12/04 06:44:21;;;;;;;46.75;22.83;;;1.20;99.90;;;;;;5013946;28;20025;-75
2020/12/04 06:46:49;;;;;;;49.00;23.75;;;1.20;99.90;;;;;;4994392;28;20146;-75
2020/12/04 06:52:09;;;;;;;59.80;24.58;;;1.20;99.90;;;;;;4995581;28;20037;-74
2020/12/04 06:54:41;;;;;;;59.63;23.48;;;1.20;99.90;;;;;;4995226;28;20041;-75
2020/12/04 06:57:08;;;;;;;48.97;23.77;;;1.20;99.90;;;;;;5015005;28;20058;-75
2020/12/04 06:59:36;;;;;;;52.35;24.67;;;1.20;99.90;;;;;;5014703;28;20464;-74
2020/12/04 07:02:11;;;;;;;50.90;24.73;;;1.20;99.90;;;;;;5014433;28;20032;-75
2020/12/04 07:04:39;;;;;;;46.50;23.70;;;1.20;99.90;;;;;;5014696;28;20088;-74
2020/12/04 07:07:07;;;;;;;57.38;24.67;;;1.30;99.90;;;;;;4995774;28;20031;-74
2020/12/04 07:09:33;;;;;;;51.53;24.10;;;1.30;99.90;;;;;;4995225;28;20090;-74
2020/12/04 07:12:00;;;;;;;56.58;23.40;;;1.30;99.90;;;;;;4995114;28;20046;-74
2020/12/04 07:14:26;;;;;;;53.90;24.42;;;1.30;99.90;;;;;;4997515;28;20113;-75
2020/12/04 07:16:53;;;;;;;48.08;22.40;;;1.30;99.90;;;;;;5013412;28;20033;-74
2020/12/04 07:19:19;;;;;;;52.28;23.63;;;1.30;99.90;;;;;;5014629;28;20022;-75
2020/12/04 07:21:44;;;;;;;51.65;23.35;;;1.30;99.90;;;;;;5013332;28;20509;-74
2020/12/04 07:24:10;;;;;;;60.13;25.85;;;1.40;99.90;;;;;;5014368;28;20029;-74
2020/12/04 07:26:36;;;;;;;47.70;22.00;;;1.40;99.90;;;;;;5011771;28;20406;-75
2020/12/04 07:29:02;;;;;;;47.20;22.38;;;1.40;99.90;;;;;;4994691;28;20022;-75
2020/12/04 07:31:27;;;;;;;46.13;22.50;;;1.30;99.90;;;;;;4994631;28;20034;-75
2020/12/04 07:33:58;;;;;;;53.45;23.35;;;1.40;99.90;;;;;;4994636;28;20390;-75
2020/12/04 07:36:25;;;;;;;47.15;22.20;;;1.40;99.90;;;;;;5006860;28;20030;-74
2020/12/04 07:39:01;;;;;;;52.72;22.90;;;1.40;99.90;;;;;;5014244;28;20490;-74
2020/12/04 07:41:39;;;;;;;48.40;23.55;;;1.40;99.90;;;;;;5029481;28;20022;-75
2020/12/04 07:44:07;;;;;;;49.63;23.35;;;1.40;99.90;;;;;;5028977;28;20132;-75
2020/12/04 07:46:34;;;;;;;49.45;22.35;;;1.40;99.90;;;;;;4994557;28;20077;-75
2020/12/04 07:49:02;;;;;;;56.35;23.50;;;1.40;99.90;;;;;;4994529;28;20033;-74
2020/12/04 07:51:28;;;;;;;50.72;24.20;;;1.40;99.90;;;;;;4993908;28;20117;-75
2020/12/04 07:53:55;;;;;;;54.58;22.45;;;1.40;99.90;;;;;;4992434;28;20037;-75
2020/12/04 07:56:25;;;;;;;48.08;24.25;;;1.40;99.90;;;;;;5008175;28;20679;-75
2020/12/04 07:58:58;;;;;;;54.72;24.83;;;1.40;99.90;;;;;;5013901;28;20033;-74
2020/12/04 08:01:23;;;;;;;54.05;25.40;;;1.40;99.90;;;;;;5013488;28;20030;-75
2020/12/04 08:03:49;;;;;;;54.15;25.52;;;1.40;99.90;;;;;;5011931;28;20030;-75
2020/12/04 08:06:15;;;;;;;52.63;26.27;;;1.40;99.90;;;;;;5001652;28;20109;-75
2020/12/04 08:08:40;;;;;;;52.83;25.23;;;1.50;99.90;;;;;;4994088;28;20058;-74
2020/12/04 08:11:11;;;;;;;52.78;25.67;;;1.40;99.90;;;;;;4993974;28;20037;-75
2020/12/04 08:13:38;;;;;;;51.80;25.58;;;1.40;99.90;;;;;;4993952;28;20022;-75
2020/12/04 08:16:07;;;;;;;60.72;24.80;;;1.40;99.90;;;;;;5024712;28;20057;-75
2020/12/04 08:18:33;;;;;;;52.03;25.90;;;1.40;99.90;;;;;;5023391;28;20057;-75
2020/12/04 08:21:05;;;;;;;52.67;24.63;;;1.50;99.90;;;;;;4993824;28;20058;-74
2020/12/04 08:23:31;;;;;;;57.42;27.10;;;1.50;99.90;;;;;;4993764;28;20030;-74
2020/12/04 08:25:57;;;;;;;60.08;24.60;;;1.40;99.90;;;;;;5005610;28;20034;-75
2020/12/04 08:28:22;;;;;;;57.75;26.42;;;1.40;99.90;;;;;;5009771;28;20033;-75
2020/12/04 08:30:48;;;;;;;52.53;24.75;;;1.40;99.90;;;;;;5012969;28;20029;-75
2020/12/04 08:33:13;;;;;;;57.88;24.83;;;1.40;99.90;;;;;;5011896;28;20160;-75
2020/12/04 08:35:43;;;;;;;54.95;25.92;;;1.40;99.90;;;;;;5018130;28;20176;-75
2020/12/04 08:38:11;;;;;;;59.22;27.98;;;1.50;99.90;;;;;;5027288;28;20397;-75
2020/12/04 08:40:39;;;;;;;56.83;25.67;;;1.50;99.90;;;;;;5032297;28;20027;-74
2020/12/04 08:43:22;;;;;;;56.67;26.50;;;1.50;99.90;;;;;;5032492;28;20037;-75
2020/12/04 08:45:53;;;;;;;61.92;28.65;;;1.50;99.90;;;;;;5017985;28;20061;-75
2020/12/04 08:48:21;;;;;;;55.25;25.05;;;1.50;99.90;;;;;;5012973;28;20061;-75
2020/12/04 08:50:52;;;;;;;52.10;25.08;;;1.50;99.90;;;;;;5011622;28;20455;-75
2020/12/04 08:53:19;;;;;;;48.28;23.95;;;1.60;99.90;;;;;;5012835;28;20038;-76
2020/12/04 08:55:46;;;;;;;56.88;27.15;;;1.70;99.90;;;;;;5001881;28;20429;-75
2020/12/04 08:58:14;;;;;;;54.58;25.58;;;1.70;99.90;;;;;;4991907;28;20077;-75
2020/12/04 09:00:40;;;;;;;60.20;26.80;;;1.60;99.90;;;;;;5008170;28;20034;-75
2020/12/04 09:03:05;;;;;;;56.25;26.25;;;1.70;99.90;;;;;;4992523;28;20037;-75
2020/12/04 09:05:30;;;;;;;60.42;27.73;;;1.70;99.90;;;;;;5013288;28;20030;-74
2020/12/04 09:07:56;;;;;;;56.38;24.80;;;1.70;99.90;;;;;;5012610;28;20037;-75
2020/12/04 09:10:21;;;;;;;55.65;25.73;;;1.70;99.90;;;;;;5012431;28;20033;-75
2020/12/04 09:12:48;;;;;;;54.15;26.02;;;1.70;99.90;;;;;;5012564;28;20033;-75
2020/12/04 09:15:16;;;;;;;55.00;25.80;;;1.70;99.90;;;;;;5001637;28;20037;-75
2020/12/04 09:17:42;;;;;;;59.42;26.95;;;1.70;99.90;;;;;;4992777;28;20026;-75
2020/12/04 09:20:09;;;;;;;57.55;27.70;;;1.80;99.90;;;;;;4992870;28;20026;-74
2020/12/04 09:22:36;;;;;;;57.58;28.52;;;1.80;99.90;;;;;;4992768;28;20023;-74
2020/12/04 09:25:03;;;;;;;63.97;29.02;;;1.70;99.90;;;;;;4996786;28;20036;-74
2020/12/04 09:27:29;;;;;;;62.25;25.73;;;1.70;99.90;;;;;;5010785;28;20026;-74
2020/12/04 09:29:55;;;;;;;65.13;27.83;;;1.70;99.90;;;;;;5011660;28;20033;-74
2020/12/04 09:32:21;;;;;;;61.58;28.50;;;1.70;99.90;;;;;;5012135;28;20040;-74
2020/12/04 09:34:48;;;;;;;60.42;28.60;;;1.80;99.90;;;;;;5011856;28;20028;-75
2020/12/04 09:37:14;;;;;;;60.20;26.98;;;1.80;99.90;;;;;;4992713;28;20022;-75
2020/12/04 09:39:43;;;;;;;60.80;28.67;;;1.70;99.90;;;;;;5015643;28;20127;-75
2020/12/04 09:42:08;;;;;;;59.55;26.27;;;1.80;99.90;;;;;;4997743;28;20046;-74
2020/12/04 09:44:34;;;;;;;57.00;26.67;;;1.80;99.90;;;;;;4993277;28;20058;-75
2020/12/04 09:47:00;;;;;;;57.67;28.45;;;1.70;99.90;;;;;;5010778;28;20054;-75
2020/12/04 09:49:26;;;;;;;63.97;28.75;;;1.80;99.90;;;;;;5012145;28;20026;-75
2020/12/04 09:51:55;;;;;;;59.30;28.40;;;1.80;99.90;;;;;;5011958;28;20057;-75
2020/12/04 09:54:20;;;;;;;56.15;26.52;;;1.80;99.90;;;;;;5010063;28;20115;-75
2020/12/04 09:56:46;;;;;;;59.20;26.80;;;1.90;99.90;;;;;;5011978;28;20620;-75
2020/12/04 09:59:14;;;;;;;56.00;27.15;;;1.90;99.90;;;;;;5010104;28;20114;-75
2020/12/04 10:01:39;;;;;;;59.60;27.23;;;1.90;99.90;;;;;;5000935;28;20019;-74
2020/12/04 10:04:05;;;;;;;59.50;27.15;;;1.90;99.90;;;;;;5009519;28;20029;-75
2020/12/04 10:06:30;;;;;;;60.25;28.10;;;1.90;99.90;;;;;;5010295;28;20386;-75
2020/12/04 10:08:56;;;;;;;53.38;24.65;;;1.90;99.90;;;;;;5010633;28;20026;-74
2020/12/04 10:11:21;;;;;;;59.83;26.42;;;1.90;99.90;;;;;;4992251;28;20069;-75
2020/12/04 10:13:47;;;;;;;65.70;29.30;;;1.90;99.90;;;;;;4990759;28;20034;-74
2020/12/04 10:16:12;;;;;;;63.17;29.08;;;1.90;99.90;;;;;;5009168;28;20038;-74
2020/12/04 10:18:38;;;;;;;59.47;27.92;;;1.90;99.90;;;;;;5026592;28;20390;-74
2020/12/04 10:21:03;;;;;;;56.30;26.67;;;1.90;99.90;;;;;;5015401;28;20486;-75
2020/12/04 10:23:29;;;;;;;59.78;27.60;;;1.80;99.90;;;;;;5015717;28;20030;-74
2020/12/04 10:25:54;;;;;;;61.88;29.48;;;1.90;99.90;;;;;;5015436;28;20414;-75
2020/12/04 10:28:20;;;;;;;62.70;28.10;;;2.00;99.90;;;;;;5015499;28;20036;-75
2020/12/04 10:30:46;;;;;;;60.75;27.85;;;2.00;99.90;;;;;;5014088;28;20026;-75
2020/12/04 10:33:12;;;;;;;61.90;26.65;;;2.00;99.90;;;;;;5015387;28;20037;-75
2020/12/04 10:35:37;;;;;;;60.97;27.05;;;2.00;99.90;;;;;;5015147;28;20036;-75
2020/12/04 10:38:03;;;;;;;57.88;27.48;;;2.00;99.90;;;;;;5030349;28;20041;-74
2020/12/04 10:40:29;;;;;;;63.17;28.38;;;2.00;99.90;;;;;;5015120;28;20030;-75
2020/12/04 10:42:54;;;;;;;64.88;27.05;;;2.00;99.90;;;;;;5015245;28;20024;-75
2020/12/04 10:45:20;;;;;;;58.22;28.58;;;2.00;99.90;;;;;;5014887;28;20390;-75
2020/12/04 10:47:45;;;;;;;60.63;27.23;;;2.00;99.90;;;;;;5013324;28;20084;-74
2020/12/04 10:50:13;;;;;;;60.00;26.35;;;2.00;99.90;;;;;;4995526;28;20030;-76
2020/12/04 10:52:38;;;;;;;59.30;27.75;;;2.10;99.90;;;;;;4995508;28;20077;-76
2020/12/04 10:55:04;;;;;;;55.75;26.83;;;2.10;99.90;;;;;;4996315;28;20108;-74
2020/12/04 10:57:30;;;;;;;56.35;25.15;;;2.10;99.90;;;;;;4999113;28;20018;-74
2020/12/04 10:59:55;;;;;;;57.28;27.85;;;2.00;99.90;;;;;;5008520;28;20030;-75
2020/12/04 11:02:30;;;;;;;55.67;25.38;;;2.10;99.90;;;;;;5010180;28;20037;-75
2020/12/04 11:07:40;;;;;;;62.47;26.65;;;2.10;99.90;;;;;;5014631;28;20045;-74
2020/12/04 11:10:05;;;;;;;63.40;27.42;;;2.20;99.90;;;;;;5014524;28;20026;-75
2020/12/04 11:12:31;;;;;;;58.95;26.35;;;2.20;99.90;;;;;;5013842;28;20501;-75
2020/12/04 11:14:56;;;;;;;55.97;26.15;;;2.10;99.90;;;;;;5015854;28;20073;-75
2020/12/04 11:17:22;;;;;;;58.65;25.90;;;2.20;99.90;;;;;;5033985;28;20025;-74
2020/12/04 11:19:47;;;;;;;59.97;27.10;;;2.20;99.90;;;;;;5034079;28;20103;-75
2020/12/04 11:22:14;;;;;;;66.00;28.88;;;2.10;99.90;;;;;;5032695;28;20028;-74
2020/12/04 11:24:40;;;;;;;62.58;27.30;;;2.20;99.90;;;;;;5021419;28;20026;-75
2020/12/04 11:27:06;;;;;;;61.63;26.00;;;2.20;99.90;;;;;;5016255;28;20029;-74
2020/12/04 11:29:31;;;;;;;59.88;26.05;;;2.20;99.90;;;;;;5006572;28;20030;-75
2020/12/04 11:31:57;;;;;;;58.78;27.85;;;2.20;99.90;;;;;;4992842;28;20080;-74
2020/12/04 11:34:22;;;;;;;58.22;26.45;;;2.20;99.90;;;;;;4998400;28;20546;-76
2020/12/04 11:36:48;;;;;;;60.83;25.70;;;2.20;99.90;;;;;;5013857;28;20033;-76
2020/12/04 11:39:13;;;;;;;62.55;26.73;;;2.20;99.90;;;;;;5028004;28;20117;-75
2020/12/04 11:41:39;;;;;;;52.15;26.52;;;2.20;99.90;;;;;;5013679;28;20022;-75
2020/12/04 11:44:04;;;;;;;56.30;25.70;;;2.20;99.90;;;;;;5012630;28;20033;-76
2020/12/04 11:46:30;;;;;;;56.80;25.98;;;2.30;99.90;;;;;;5028799;28;20025;-75
2020/12/04 11:48:55;;;;;;;60.78;27.55;;;2.30;99.90;;;;;;5013469;28;20041;-75
2020/12/04 11:51:22;;;;;;;57.30;25.83;;;2.30;99.90;;;;;;5014513;28;20105;-75
2020/12/04 11:53:48;;;;;;;60.25;28.00;;;2.30;99.90;;;;;;5031793;28;20164;-75
2020/12/04 11:56:13;;;;;;;59.95;27.33;;;2.40;99.90;;;;;;5015448;28;20508;-77
2020/12/04 11:58:39;;;;;;;63.65;28.35;;;2.40;99.90;;;;;;5011899;28;20014;-76
2020/12/04 12:01:04;;;;;;;64.13;28.08;;;2.40;99.90;;;;;;5008595;28;20035;-75
2020/12/04 12:03:30;;;;;;;62.33;27.50;;;2.40;99.90;;;;;;5000642;28;20057;-75
2020/12/04 12:05:55;;;;;;;61.58;26.60;;;2.40;99.90;;;;;;5012427;28;20029;-75
2020/12/04 12:08:20;;;;;;;56.60;27.27;;;2.40;99.90;;;;;;5012982;28;20022;-75
2020/12/04 12:10:46;;;;;;;67.68;28.17;;;2.30;99.90;;;;;;5013137;28;20113;-76
2020/12/04 12:13:11;;;;;;;63.08;27.20;;;2.30;99.90;;;;;;5013020;28;20034;-76
2020/12/04 12:15:37;;;;;;;55.75;25.77;;;2.30;99.90;;;;;;5018018;28;20049;-76
2020/12/04 12:18:02;;;;;;;61.17;27.13;;;2.30;99.90;;;;;;5032581;28;20035;-75
2020/12/04 12:20:28;;;;;;;57.35;26.15;;;2.30;99.90;;;;;;5031466;28;20478;-76
2020/12/04 12:22:53;;;;;;;61.20;27.33;;;2.30;99.90;;;;;;5031553;28;20050;-75
2020/12/04 12:25:19;;;;;;;65.43;28.50;;;2.40;99.90;;;;;;5023078;28;20041;-75
2020/12/04 12:27:44;;;;;;;57.60;27.00;;;2.40;99.90;;;;;;5012002;28;20504;-75
2020/12/04 12:30:10;;;;;;;55.95;27.60;;;2.50;99.90;;;;;;5001712;28;20093;-74
2020/12/04 12:32:36;;;;;;;63.03;27.63;;;2.40;99.90;;;;;;5010662;28;20042;-75
2020/12/04 12:35:04;;;;;;;57.38;27.42;;;2.50;99.90;;;;;;5010428;28;20041;-75
2020/12/04 12:37:31;;;;;;;62.83;26.63;;;2.50;99.90;;;;;;5012624;28;20541;-75
2020/12/04 12:39:58;;;;;;;61.88;27.55;;;2.50;99.90;;;;;;5010122;28;20034;-74
2020/12/04 12:42:24;;;;;;;60.47;29.23;;;2.50;99.90;;;;;;5011306;28;20022;-75